This is the latest recevied weather packets stored in our database for station/object EA5CH. If no packets are shown the sender has not sent any weather packets the latest 10 day(s).
| Time | Temp. | Humidity | Pressure | Rain* | Wind** | Luminosity | Snow |
|---|---|---|---|---|---|---|---|
| 1777657519 | 20.56° C | 82% | 1021.7 hPa | 0 mm | - | - | - |
| 1777654519 | 21.11° C | 81% | 1021.7 hPa | 0 mm | - | - | - |
| 1777651519 | 21.67° C | 80% | 1021.5 hPa | 0 mm | - | - | - |
| 1777649119 | 21.67° C | 80% | 1021.6 hPa | 0 mm | - | - | - |
| 1777644320 | 21.11° C | 83% | 1021.8 hPa | 0 mm | - | - | - |
| 1777640118 | 21.67° C | 78% | 1021.8 hPa | 0 mm | - | - | - |
| 1777638319 | 22.22° C | 78% | 1021.7 hPa | 0 mm | - | - | - |
| 1777637720 | 22.22° C | 78% | 1021.8 hPa | 0 mm | - | - | - |
| 1777636520 | 22.78° C | 74% | 1021.7 hPa | 0 mm | - | - | - |
| 1777634717 | 22.22° C | 75% | 1021.8 hPa | 0 mm | - | - | - |
| 1777633518 | 22.22° C | 75% | 1022 hPa | 0 mm | - | - | - |
| 1777629318 | 20° C | 83% | 1022.4 hPa | 0 mm | - | - | - |
| 1777624518 | 19.44° C | 88% | 1021.9 hPa | 0 mm | - | - | - |
| 1777623918 | 18.89° C | 88% | 1021.7 hPa | 0 mm | - | - | - |
| 1777623318 | 18.89° C | 88% | 1021.7 hPa | 0 mm | - | - | - |
| 1777621518 | 18.89° C | 88% | 1021.2 hPa | 0 mm | - | - | - |
| 1777616118 | 18.33° C | 91% | 1019.7 hPa | 0 mm | - | - | - |
| 1777615519 | 18.33° C | 91% | 1019.6 hPa | 0 mm | - | - | - |
| 1777611319 | 17.78° C | 91% | 1018.7 hPa | 0 mm | - | - | - |
| 1777607718 | 17.22° C | 92% | 1018.6 hPa | 0 mm | - | - | - |
| 1777598720 | 18.33° C | 90% | 1019 hPa | 0 mm | - | - | - |
| 1777598138 | 18.33° C | 89% | 1019.1 hPa | 0 mm | - | - | - |
| 1777592118 | 18.33° C | 88% | 1019.6 hPa | 0 mm | - | - | - |
| 1777590920 | 18.33° C | 88% | 1019.6 hPa | 0 mm | - | - | - |
| 1777590318 | 18.33° C | 88% | 1019.6 hPa | 0 mm | - | - | - |
* Rain latest hour (hover to see other rain measurements)
** Current wind speed in m/s (hover to see current wind gust speed)